Time;durP1;ratioP1;P1;durP2;ratioP2;P2;SDS_P1;SDS_P2;PMS_P1;PMS_P2;Temp;Humidity;BMP_temperature;BMP_pressure;BME280_temperature;BME280_humidity;BME280_pressure;Samples;Min_cycle;Max_cycle;Signal;HPM_P1;HPM_P2
2022/03/31 00:01:09;;;;;;;7.30;5.00;;;3.20;99.90;;;;;;4952810;28;20501;-53
2022/03/31 00:03:36;;;;;;;6.80;4.50;;;3.20;99.90;;;;;;4952392;29;20494;-53
2022/03/31 00:06:04;;;;;;;4.93;4.50;;;3.10;99.90;;;;;;4950924;28;20988;-53
2022/03/31 00:08:30;;;;;;;5.70;5.07;;;3.10;99.90;;;;;;4951911;28;21078;-53
2022/03/31 00:10:57;;;;;;;8.70;5.03;;;3.00;99.90;;;;;;4952922;29;20498;-52
2022/03/31 00:13:25;;;;;;;6.90;5.00;;;2.90;99.90;;;;;;4951735;28;20585;-54
2022/03/31 00:15:53;;;;;;;8.07;4.53;;;2.90;99.90;;;;;;4951492;28;20553;-53
2022/03/31 00:18:20;;;;;;;9.10;4.77;;;2.80;99.90;;;;;;4950369;28;20496;-53
2022/03/31 00:20:46;;;;;;;11.40;5.23;;;2.70;99.90;;;;;;4951799;28;21024;-54
2022/03/31 00:23:14;;;;;;;4.63;4.20;;;2.70;99.90;;;;;;4953438;29;20541;-54
2022/03/31 00:25:42;;;;;;;6.43;4.60;;;2.70;99.90;;;;;;4951934;28;20470;-52
2022/03/31 00:28:09;;;;;;;4.93;4.23;;;2.60;99.90;;;;;;4951512;28;21055;-52
2022/03/31 00:30:36;;;;;;;7.27;4.50;;;2.60;99.90;;;;;;4952944;28;20594;-52
2022/03/31 00:33:02;;;;;;;6.07;5.50;;;2.50;99.90;;;;;;4948311;28;20496;-52
2022/03/31 00:35:30;;;;;;;12.40;4.23;;;2.50;99.90;;;;;;4950294;28;20573;-53
2022/03/31 00:37:57;;;;;;;5.23;4.10;;;2.50;99.90;;;;;;4950473;28;20555;-52
2022/03/31 00:40:25;;;;;;;4.87;4.47;;;2.40;99.90;;;;;;4951820;28;21044;-52
2022/03/31 00:42:54;;;;;;;4.90;4.47;;;2.40;99.90;;;;;;4952379;28;20455;-53
2022/03/31 00:45:23;;;;;;;7.57;4.90;;;2.40;99.90;;;;;;4950999;28;20469;-53
2022/03/31 00:47:50;;;;;;;5.20;4.70;;;2.30;99.90;;;;;;4951743;28;20507;-53
2022/03/31 00:50:18;;;;;;;7.20;4.10;;;2.30;99.90;;;;;;4951489;28;20494;-53
2022/03/31 00:52:45;;;;;;;4.37;3.97;;;2.20;99.90;;;;;;4952307;28;20501;-53
2022/03/31 00:55:13;;;;;;;14.40;4.37;;;2.20;99.90;;;;;;4952638;28;20920;-52
2022/03/31 00:57:43;;;;;;;5.20;4.37;;;2.10;99.90;;;;;;4951620;28;20609;-53
2022/03/31 01:00:11;;;;;;;5.40;4.77;;;2.00;99.90;;;;;;4950210;28;20496;-53
2022/03/31 01:02:39;;;;;;;4.70;4.20;;;2.00;99.90;;;;;;4947854;28;21087;-53
2022/03/31 01:05:06;;;;;;;7.10;4.00;;;2.00;99.90;;;;;;4951351;28;20463;-52
2022/03/31 01:07:48;;;;;;;4.53;4.13;;;2.00;99.90;;;;;;4937721;29;20478;-53
2022/03/31 01:10:15;;;;;;;4.57;4.17;;;2.00;99.90;;;;;;4949006;28;20561;-53
2022/03/31 01:12:43;;;;;;;7.40;4.40;;;1.90;99.90;;;;;;4951404;28;20454;-52
2022/03/31 01:15:11;;;;;;;5.23;4.23;;;1.90;99.90;;;;;;4945563;29;22519;-53
2022/03/31 01:17:39;;;;;;;4.60;3.83;;;1.80;99.90;;;;;;4949012;28;21088;-54
2022/03/31 01:20:08;;;;;;;5.00;3.70;;;1.80;99.90;;;;;;4952278;29;20502;-53
2022/03/31 01:22:35;;;;;;;5.53;4.33;;;1.70;99.90;;;;;;4951662;28;20553;-52
2022/03/31 01:25:06;;;;;;;4.53;3.90;;;1.70;99.90;;;;;;4950199;28;20561;-51
2022/03/31 01:27:34;;;;;;;12.97;4.77;;;1.70;99.90;;;;;;4948685;28;20978;-52
2022/03/31 01:30:01;;;;;;;5.27;4.50;;;1.60;99.90;;;;;;4949169;28;20541;-52
2022/03/31 01:32:28;;;;;;;6.17;4.03;;;1.60;99.90;;;;;;4955003;28;20466;-52
2022/03/31 01:34:54;;;;;;;5.27;4.77;;;1.60;99.90;;;;;;4954001;28;20482;-52
2022/03/31 01:37:21;;;;;;;4.20;3.77;;;1.50;99.90;;;;;;4955282;28;21008;-53
2022/03/31 01:39:47;;;;;;;5.17;3.90;;;1.50;99.90;;;;;;4954077;28;20912;-52
2022/03/31 01:42:15;;;;;;;10.07;4.80;;;1.50;99.90;;;;;;4955623;28;20525;-53
2022/03/31 01:44:42;;;;;;;4.53;4.10;;;1.40;99.90;;;;;;4949826;28;20553;-53
2022/03/31 01:47:09;;;;;;;4.53;4.07;;;1.40;99.90;;;;;;4954060;28;20573;-53
2022/03/31 01:49:36;;;;;;;9.43;4.53;;;1.40;99.90;;;;;;4954568;28;20485;-52
2022/03/31 01:52:03;;;;;;;5.93;3.60;;;1.30;99.90;;;;;;4954582;28;20561;-53
2022/03/31 01:54:30;;;;;;;7.00;4.63;;;1.30;99.90;;;;;;4953462;28;20577;-52
2022/03/31 01:56:57;;;;;;;5.87;4.10;;;1.30;99.90;;;;;;4955098;28;20478;-52
2022/03/31 01:59:32;;;;;;;4.93;3.73;;;1.30;99.90;;;;;;4955017;28;20506;-52
2022/03/31 02:01:59;;;;;;;4.80;4.20;;;1.20;99.90;;;;;;4954639;28;20466;-52
2022/03/31 02:04:25;;;;;;;7.63;4.30;;;1.10;99.90;;;;;;4955300;29;20537;-53
2022/03/31 02:06:52;;;;;;;7.33;3.90;;;1.20;99.90;;;;;;4954629;28;20573;-51
2022/03/31 02:09:18;;;;;;;8.13;4.07;;;1.10;99.90;;;;;;4952024;28;20561;-52
2022/03/31 02:11:45;;;;;;;4.30;3.90;;;1.20;99.90;;;;;;4952996;28;20919;-52
2022/03/31 02:14:12;;;;;;;5.00;3.87;;;1.20;99.90;;;;;;4953079;28;20489;-52
2022/03/31 02:16:40;;;;;;;11.70;4.10;;;1.20;99.90;;;;;;4946087;28;20562;-53
2022/03/31 02:19:07;;;;;;;3.57;3.30;;;1.20;99.90;;;;;;4966350;23;20564;-49
2022/03/31 02:21:34;;;;;;;6.67;4.27;;;1.20;99.90;;;;;;4959512;29;20549;-49
2022/03/31 02:24:01;;;;;;;9.37;3.90;;;1.30;99.90;;;;;;4952028;29;20546;-49
2022/03/31 02:26:28;;;;;;;4.93;4.00;;;1.30;99.90;;;;;;4948706;29;20455;-49
2022/03/31 02:28:54;;;;;;;6.30;4.43;;;1.30;99.90;;;;;;4948656;28;20516;-49
2022/03/31 02:31:21;;;;;;;5.23;4.00;;;1.30;99.90;;;;;;4939905;28;20495;-49
2022/03/31 02:33:49;;;;;;;4.47;4.10;;;1.30;99.90;;;;;;4949602;29;20490;-48
2022/03/31 02:36:15;;;;;;;8.47;4.27;;;1.30;99.90;;;;;;4956985;28;20504;-48
2022/03/31 02:38:43;;;;;;;5.73;3.63;;;1.30;99.90;;;;;;4945266;28;20558;-49
2022/03/31 02:41:09;;;;;;;5.50;4.23;;;1.30;99.90;;;;;;4950785;29;20460;-49
2022/03/31 02:43:36;;;;;;;4.97;4.43;;;1.30;99.90;;;;;;4952835;28;20557;-49
2022/03/31 02:46:03;;;;;;;9.70;4.53;;;1.20;99.90;;;;;;4964002;29;20436;-49
2022/03/31 02:48:29;;;;;;;6.37;4.20;;;1.20;99.90;;;;;;4960874;28;20454;-49
2022/03/31 02:50:57;;;;;;;5.63;4.00;;;1.20;99.90;;;;;;4961491;29;20506;-52
2022/03/31 02:56:08;;;;;;;4.93;3.93;;;1.20;99.90;;;;;;4958658;28;20534;-48
2022/03/31 02:58:35;;;;;;;4.77;4.20;;;1.20;99.90;;;;;;4950783;29;20460;-49
2022/03/31 03:01:01;;;;;;;6.60;4.57;;;1.10;99.90;;;;;;4951937;29;20494;-49
2022/03/31 03:03:28;;;;;;;8.23;4.30;;;1.00;99.90;;;;;;4943839;28;20548;-49
2022/03/31 03:05:56;;;;;;;6.50;4.20;;;1.10;99.90;;;;;;4949649;29;20458;-49
2022/03/31 03:08:25;;;;;;;6.00;4.67;;;1.10;99.90;;;;;;4946150;29;20980;-49
2022/03/31 03:10:51;;;;;;;4.33;3.83;;;1.10;99.90;;;;;;4948460;29;21029;-48
2022/03/31 03:13:18;;;;;;;5.67;4.63;;;1.10;99.90;;;;;;4947959;29;20549;-50
2022/03/31 03:15:44;;;;;;;6.97;4.33;;;1.10;99.90;;;;;;4953602;29;20581;-49
2022/03/31 03:18:11;;;;;;;6.03;4.70;;;1.00;99.90;;;;;;4945365;29;21022;-49
2022/03/31 03:20:38;;;;;;;4.90;4.40;;;1.00;99.90;;;;;;4947326;29;20509;-49
2022/03/31 03:23:06;;;;;;;6.00;4.23;;;0.90;99.90;;;;;;4943784;29;20443;-49
2022/03/31 03:25:32;;;;;;;6.10;4.00;;;0.70;99.90;;;;;;4953453;29;20486;-48
2022/03/31 03:27:59;;;;;;;8.40;4.70;;;0.70;99.90;;;;;;4946441;29;22661;-49
2022/03/31 03:30:26;;;;;;;8.43;4.60;;;0.70;99.90;;;;;;4949610;28;20477;-49
2022/03/31 03:32:52;;;;;;;4.63;4.03;;;0.70;99.90;;;;;;4951291;28;20487;-49
2022/03/31 03:35:19;;;;;;;6.83;4.40;;;0.60;99.90;;;;;;4949472;28;21027;-48
2022/03/31 03:37:46;;;;;;;6.33;4.37;;;0.60;99.90;;;;;;4947265;28;21000;-49
2022/03/31 03:40:15;;;;;;;5.80;4.00;;;0.50;99.90;;;;;;4951839;29;21039;-48
2022/03/31 03:42:42;;;;;;;7.53;4.53;;;0.50;99.90;;;;;;4951497;28;20525;-48
2022/03/31 03:45:11;;;;;;;7.80;4.50;;;0.40;99.90;;;;;;4952376;28;20466;-49
2022/03/31 03:47:37;;;;;;;5.23;4.40;;;0.40;99.90;;;;;;4947498;28;20465;-49
2022/03/31 03:50:06;;;;;;;5.20;4.70;;;0.40;99.90;;;;;;4950099;28;21054;-49
2022/03/31 03:52:32;;;;;;;5.93;4.10;;;0.40;99.90;;;;;;4945795;29;20467;-50
2022/03/31 03:54:59;;;;;;;5.83;4.53;;;0.30;99.90;;;;;;4949818;28;20744;-50
2022/03/31 03:57:27;;;;;;;4.87;4.23;;;0.30;99.90;;;;;;4952750;29;20553;-53
2022/03/31 03:59:53;;;;;;;4.30;3.87;;;0.30;99.90;;;;;;4937753;29;20500;-48
2022/03/31 04:02:20;;;;;;;6.10;4.00;;;0.20;99.90;;;;;;4944464;29;20493;-49
2022/03/31 04:04:47;;;;;;;3.90;3.53;;;0.20;99.90;;;;;;4944733;29;20485;-48
2022/03/31 04:07:13;;;;;;;6.93;3.77;;;0.20;99.90;;;;;;4940333;29;21123;-49
2022/03/31 04:09:40;;;;;;;3.23;2.93;;;0.20;99.90;;;;;;4961068;28;20527;-49
2022/03/31 04:12:07;;;;;;;4.27;3.87;;;0.20;99.90;;;;;;4948141;28;20879;-49
2022/03/31 04:14:35;;;;;;;4.23;3.57;;;0.20;99.90;;;;;;4945726;29;20498;-49
2022/03/31 04:17:02;;;;;;;7.60;3.73;;;0.10;99.90;;;;;;4955075;29;20546;-50
2022/03/31 04:19:28;;;;;;;4.03;3.63;;;0.10;99.90;;;;;;4949825;29;20606;-51
2022/03/31 04:21:55;;;;;;;3.73;3.47;;;0.10;99.90;;;;;;4953964;28;20490;-49
2022/03/31 04:24:21;;;;;;;4.23;3.83;;;0.20;99.90;;;;;;4952730;29;21058;-51
2022/03/31 04:26:48;;;;;;;3.67;3.37;;;0.20;99.90;;;;;;4949102;28;20494;-51
2022/03/31 04:29:16;;;;;;;5.20;3.30;;;0.20;99.90;;;;;;4945351;28;20522;-51
2022/03/31 04:31:44;;;;;;;3.53;3.23;;;0.30;99.90;;;;;;4941765;29;20463;-52
2022/03/31 04:34:13;;;;;;;4.00;3.50;;;0.20;99.90;;;;;;4947801;28;20493;-49
2022/03/31 04:36:40;;;;;;;4.23;3.67;;;0.20;99.90;;;;;;4958277;28;20493;-48
2022/03/31 04:39:06;;;;;;;5.43;3.70;;;0.20;99.90;;;;;;4949395;28;20513;-48
2022/03/31 04:41:33;;;;;;;3.40;3.10;;;0.20;99.90;;;;;;4952102;29;20494;-48
2022/03/31 04:44:00;;;;;;;3.83;3.53;;;0.10;99.90;;;;;;4949744;28;20499;-48
2022/03/31 04:46:27;;;;;;;3.93;3.50;;;0.00;99.90;;;;;;4951806;29;20494;-49
2022/03/31 04:48:55;;;;;;;3.90;3.17;;;0.00;99.90;;;;;;4949340;29;20571;-52
2022/03/31 04:51:21;;;;;;;4.93;3.60;;;0.00;99.90;;;;;;4947267;29;20976;-51
2022/03/31 04:53:48;;;;;;;5.97;3.40;;;0.00;99.90;;;;;;4951664;29;20548;-50
2022/03/31 04:56:16;;;;;;;9.60;3.67;;;0.00;99.90;;;;;;4952989;29;20581;-50
2022/03/31 04:58:43;;;;;;;4.67;3.27;;;0.00;99.90;;;;;;4946901;28;20455;-51
2022/03/31 05:01:10;;;;;;;3.00;2.80;;;0.00;99.90;;;;;;4951264;28;20911;-50
2022/03/31 05:03:37;;;;;;;3.90;3.50;;;0.00;99.90;;;;;;4948869;28;20467;-48
2022/03/31 05:06:05;;;;;;;3.73;3.00;;;-0.10;99.90;;;;;;4946381;28;20497;-48
2022/03/31 05:08:32;;;;;;;3.80;3.40;;;0.00;99.90;;;;;;4950921;28;20553;-50
2022/03/31 05:10:59;;;;;;;10.77;3.30;;;-0.10;99.90;;;;;;4952469;28;20894;-49
2022/03/31 05:13:25;;;;;;;12.73;3.37;;;-0.10;99.90;;;;;;4948457;28;20495;-51
2022/03/31 05:15:52;;;;;;;3.70;3.40;;;0.00;99.90;;;;;;4951203;28;20482;-51
2022/03/31 05:18:19;;;;;;;3.63;3.27;;;0.10;99.90;;;;;;4947610;28;20569;-50
2022/03/31 05:20:46;;;;;;;2.63;2.47;;;0.00;99.90;;;;;;4951469;29;20577;-51
2022/03/31 05:23:14;;;;;;;14.43;3.27;;;0.10;99.90;;;;;;4948171;28;20573;-50
2022/03/31 05:25:40;;;;;;;2.90;2.70;;;0.10;99.90;;;;;;4944586;28;20462;-51
2022/03/31 05:28:08;;;;;;;3.20;2.90;;;0.20;99.90;;;;;;4954832;28;20466;-52
2022/03/31 05:30:35;;;;;;;5.83;3.33;;;0.20;99.90;;;;;;4950310;28;20512;-50
2022/03/31 05:33:02;;;;;;;4.60;3.47;;;0.20;99.90;;;;;;4945960;28;20560;-50
2022/03/31 05:35:29;;;;;;;22.20;3.40;;;0.30;99.90;;;;;;4953394;28;20497;-51
2022/03/31 05:37:56;;;;;;;16.53;3.70;;;0.30;99.90;;;;;;4955058;28;20490;-51
2022/03/31 05:40:24;;;;;;;6.47;3.20;;;0.20;99.90;;;;;;4955182;28;20573;-51
2022/03/31 05:42:51;;;;;;;5.63;2.93;;;0.20;99.90;;;;;;4953864;28;20466;-50
2022/03/31 05:45:17;;;;;;;12.90;4.03;;;0.40;99.90;;;;;;4953953;28;21154;-50
2022/03/31 05:47:46;;;;;;;9.03;3.60;;;0.30;99.90;;;;;;4947305;28;20570;-49
2022/03/31 05:50:15;;;;;;;13.53;3.03;;;0.40;99.90;;;;;;4953887;28;20943;-50
2022/03/31 05:52:43;;;;;;;7.40;2.70;;;0.30;99.90;;;;;;4954872;28;20498;-53
2022/03/31 05:55:13;;;;;;;5.53;3.43;;;0.50;99.90;;;;;;4954183;28;20494;-52
2022/03/31 05:57:41;;;;;;;4.20;2.87;;;0.50;99.90;;;;;;4951978;28;20474;-53
2022/03/31 06:00:10;;;;;;;24.97;3.80;;;0.60;99.90;;;;;;4954562;28;20506;-52
2022/03/31 06:02:37;;;;;;;12.47;2.70;;;0.60;99.90;;;;;;4954545;29;20455;-53
2022/03/31 06:05:04;;;;;;;7.77;3.13;;;0.70;99.90;;;;;;4956745;29;20879;-54
2022/03/31 06:07:30;;;;;;;23.57;3.90;;;0.80;99.90;;;;;;4940383;29;20989;-53
2022/03/31 06:09:58;;;;;;;5.30;3.37;;;0.80;99.90;;;;;;4952477;29;20915;-53
2022/03/31 06:12:24;;;;;;;10.00;2.90;;;0.80;99.90;;;;;;4954023;29;21232;-53
2022/03/31 06:14:52;;;;;;;6.40;3.07;;;0.90;99.90;;;;;;4939341;29;20490;-54
2022/03/31 06:17:19;;;;;;;3.33;3.07;;;1.10;99.90;;;;;;4954839;28;20593;-53
2022/03/31 06:19:46;;;;;;;5.70;2.93;;;1.00;99.90;;;;;;4952743;28;21016;-52
2022/03/31 06:22:12;;;;;;;4.50;2.80;;;1.10;99.90;;;;;;4951925;28;20652;-53
2022/03/31 06:24:39;;;;;;;5.07;2.90;;;1.10;99.90;;;;;;4947573;28;22300;-53
2022/03/31 06:27:07;;;;;;;2.80;2.60;;;0.90;99.90;;;;;;4949926;28;20553;-54
2022/03/31 06:29:34;;;;;;;4.77;2.80;;;1.10;99.90;;;;;;4963133;28;20482;-53
2022/03/31 06:32:03;;;;;;;5.27;2.70;;;1.20;99.90;;;;;;4953944;28;20521;-53
2022/03/31 06:34:30;;;;;;;7.43;3.17;;;1.30;99.90;;;;;;4953235;28;21063;-52
2022/03/31 06:36:57;;;;;;;5.20;3.43;;;1.40;99.90;;;;;;4955505;28;20490;-54
2022/03/31 06:39:25;;;;;;;3.77;3.20;;;1.50;99.90;;;;;;4952598;28;20576;-52
2022/03/31 06:41:52;;;;;;;3.80;3.47;;;1.40;99.90;;;;;;4951002;28;20502;-52
2022/03/31 06:44:21;;;;;;;3.10;2.90;;;1.30;99.90;;;;;;4950974;28;20466;-53
2022/03/31 06:46:47;;;;;;;3.70;3.40;;;1.50;99.90;;;;;;4950182;28;20457;-53
2022/03/31 06:49:15;;;;;;;4.40;2.90;;;1.60;99.90;;;;;;4950156;28;21360;-53
2022/03/31 06:51:43;;;;;;;3.97;3.57;;;1.60;99.90;;;;;;4943954;28;20553;-53
2022/03/31 06:54:09;;;;;;;8.13;3.37;;;1.60;99.90;;;;;;4943953;28;20569;-52
2022/03/31 06:56:37;;;;;;;5.23;3.50;;;1.50;99.90;;;;;;4950078;28;20578;-52
2022/03/31 06:59:04;;;;;;;6.23;3.23;;;1.40;99.90;;;;;;4950442;28;20568;-53
2022/03/31 07:01:31;;;;;;;5.93;4.33;;;1.90;99.90;;;;;;4951607;28;20494;-53
2022/03/31 07:03:58;;;;;;;4.50;3.40;;;1.70;99.90;;;;;;4951608;28;20470;-52
2022/03/31 07:06:25;;;;;;;4.60;3.67;;;1.80;99.90;;;;;;4949768;28;20460;-53
2022/03/31 07:08:52;;;;;;;6.03;3.10;;;1.70;99.90;;;;;;4950637;28;20569;-53
2022/03/31 07:11:18;;;;;;;3.40;3.20;;;1.80;99.90;;;;;;4947485;28;20586;-52
2022/03/31 07:13:46;;;;;;;3.63;3.23;;;1.80;99.90;;;;;;4947780;28;20887;-51
2022/03/31 07:16:14;;;;;;;7.13;4.47;;;2.10;99.90;;;;;;4945554;28;20490;-50
2022/03/31 07:18:40;;;;;;;6.97;3.20;;;2.20;99.90;;;;;;4949652;28;20463;-48
2022/03/31 07:21:07;;;;;;;4.00;3.70;;;2.40;99.90;;;;;;4950473;28;20493;-49
2022/03/31 07:23:35;;;;;;;5.30;3.10;;;2.60;99.90;;;;;;4950075;28;20476;-50
2022/03/31 07:26:02;;;;;;;5.30;3.77;;;2.60;99.90;;;;;;4949916;28;21020;-49
2022/03/31 07:28:29;;;;;;;6.17;3.60;;;2.70;99.90;;;;;;4947461;28;20466;-49
2022/03/31 07:30:55;;;;;;;4.13;3.30;;;2.70;99.90;;;;;;4948656;29;20486;-49
2022/03/31 07:33:22;;;;;;;7.93;3.20;;;2.90;99.90;;;;;;4952828;28;20545;-49
2022/03/31 07:35:49;;;;;;;4.67;3.67;;;3.10;99.90;;;;;;4951305;29;20482;-49
2022/03/31 07:38:16;;;;;;;4.00;3.70;;;3.00;99.90;;;;;;4953797;29;20481;-49
2022/03/31 07:40:45;;;;;;;3.40;3.10;;;2.80;99.90;;;;;;4950313;28;20517;-49
2022/03/31 07:43:12;;;;;;;4.47;3.87;;;2.70;99.90;;;;;;4946555;28;20876;-50
2022/03/31 07:45:39;;;;;;;5.40;3.83;;;3.00;99.90;;;;;;4950222;29;20493;-48
2022/03/31 07:48:07;;;;;;;3.17;2.97;;;3.30;99.90;;;;;;4949577;28;20909;-50
2022/03/31 07:50:34;;;;;;;7.50;3.50;;;3.70;99.90;;;;;;4947876;28;20485;-49
2022/03/31 07:53:01;;;;;;;10.20;3.67;;;3.60;99.90;;;;;;4950093;28;20971;-49
2022/03/31 07:55:28;;;;;;;4.17;2.83;;;4.10;99.90;;;;;;4950031;28;20455;-50
2022/03/31 07:57:56;;;;;;;3.47;3.17;;;3.90;99.90;;;;;;4951465;28;20545;-49
2022/03/31 08:00:23;;;;;;;4.33;3.30;;;4.00;99.90;;;;;;4952542;29;20557;-49
2022/03/31 08:02:52;;;;;;;3.30;3.10;;;4.10;99.90;;;;;;4953111;29;20870;-49
2022/03/31 08:05:20;;;;;;;5.23;3.27;;;4.30;99.90;;;;;;4953473;29;20459;-51
2022/03/31 08:07:47;;;;;;;4.20;3.80;;;4.00;99.90;;;;;;4938995;29;20531;-50
2022/03/31 08:10:13;;;;;;;6.93;3.73;;;3.90;99.90;;;;;;4945100;29;20561;-51
2022/03/31 08:12:40;;;;;;;4.70;3.50;;;4.30;99.90;;;;;;4951597;28;20489;-51
2022/03/31 08:15:12;;;;;;;3.70;3.07;;;4.20;99.90;;;;;;4951613;28;20513;-51
2022/03/31 08:17:39;;;;;;;5.93;2.87;;;4.30;99.90;;;;;;4948032;29;21095;-51
2022/03/31 08:20:07;;;;;;;4.90;3.03;;;4.00;99.90;;;;;;4962613;23;20462;-53
2022/03/31 08:22:34;;;;;;;4.13;3.73;;;3.90;99.90;;;;;;4969579;28;20536;-53
2022/03/31 08:25:01;;;;;;;5.93;3.37;;;4.30;99.90;;;;;;4972439;28;20464;-53
2022/03/31 08:27:28;;;;;;;6.50;3.10;;;4.40;99.90;;;;;;4971059;28;20446;-53
2022/03/31 08:29:54;;;;;;;2.70;2.33;;;4.40;99.90;;;;;;4972592;28;20940;-53
2022/03/31 08:32:22;;;;;;;4.37;3.10;;;4.30;99.90;;;;;;4967469;28;20461;-53
2022/03/31 08:34:49;;;;;;;7.70;3.10;;;4.70;99.90;;;;;;4969091;28;20997;-53
2022/03/31 08:37:15;;;;;;;6.20;3.20;;;4.60;99.90;;;;;;4973186;28;20572;-54
2022/03/31 08:39:42;;;;;;;14.33;3.10;;;4.60;99.90;;;;;;4971711;28;20496;-52
2022/03/31 08:42:09;;;;;;;3.30;2.93;;;4.90;99.90;;;;;;4976363;28;20508;-52
2022/03/31 08:44:37;;;;;;;6.50;5.60;;;5.00;99.90;;;;;;4974791;28;20449;-52
2022/03/31 08:47:04;;;;;;;6.40;4.30;;;5.00;99.90;;;;;;4969547;28;20556;-53
2022/03/31 08:49:36;;;;;;;4.00;3.70;;;5.60;99.90;;;;;;4962007;28;20480;-53
2022/03/31 08:52:03;;;;;;;3.80;3.27;;;5.80;99.90;;;;;;4961660;28;20478;-52
2022/03/31 08:54:29;;;;;;;13.83;3.53;;;5.80;99.90;;;;;;4974303;28;20532;-53
2022/03/31 08:56:56;;;;;;;7.30;3.43;;;5.80;99.90;;;;;;4973083;28;20580;-53
2022/03/31 08:59:22;;;;;;;6.23;3.77;;;6.00;99.90;;;;;;4974097;28;20536;-53
2022/03/31 09:01:49;;;;;;;6.60;4.93;;;6.30;99.90;;;;;;4966281;28;20478;-53
2022/03/31 09:04:26;;;;;;;13.57;5.40;;;6.00;99.90;;;;;;4960825;28;20568;-54
2022/03/31 09:07:03;;;;;;;4.00;3.10;;;6.20;99.90;;;;;;4973955;28;20507;-52
2022/03/31 09:09:29;;;;;;;8.10;3.70;;;6.10;99.90;;;;;;4972734;28;20523;-53
2022/03/31 09:11:56;;;;;;;5.30;2.30;;;6.30;99.90;;;;;;4970229;28;20564;-54
2022/03/31 09:14:29;;;;;;;4.30;3.57;;;6.80;99.90;;;;;;4970784;28;20537;-52
2022/03/31 09:16:56;;;;;;;3.17;2.70;;;7.00;99.90;;;;;;4974003;28;20572;-53
2022/03/31 09:19:24;;;;;;;5.03;3.17;;;7.40;99.90;;;;;;4967401;28;20486;-53
2022/03/31 09:21:51;;;;;;;3.83;3.27;;;7.70;99.90;;;;;;4972587;28;20505;-52
2022/03/31 09:24:20;;;;;;;5.03;2.70;;;7.80;99.90;;;;;;4969457;28;20955;-53
2022/03/31 09:26:47;;;;;;;3.33;2.80;;;8.00;99.90;;;;;;4972526;28;20540;-53
2022/03/31 09:29:15;;;;;;;4.80;2.97;;;7.70;99.90;;;;;;4969175;28;20542;-53
2022/03/31 09:31:42;;;;;;;5.67;2.80;;;7.40;99.90;;;;;;4962869;28;20482;-53
2022/03/31 09:34:09;;;;;;;7.00;3.50;;;7.40;99.90;;;;;;4975654;28;20496;-53
2022/03/31 09:36:37;;;;;;;4.57;2.90;;;8.40;99.90;;;;;;4975803;28;20496;-53
2022/03/31 09:39:09;;;;;;;5.00;2.70;;;8.40;99.90;;;;;;4973475;28;20804;-52
2022/03/31 09:41:39;;;;;;;3.23;2.80;;;7.90;99.90;;;;;;4967872;28;20537;-52
2022/03/31 09:44:08;;;;;;;3.07;2.80;;;8.30;99.90;;;;;;4972274;28;20524;-53
2022/03/31 09:46:36;;;;;;;3.13;2.77;;;8.20;99.90;;;;;;4974947;28;20525;-53
2022/03/31 09:49:12;;;;;;;12.03;2.70;;;8.40;99.90;;;;;;4974907;28;20527;-55
2022/03/31 09:51:39;;;;;;;3.10;2.90;;;8.60;99.90;;;;;;4975818;28;20551;-53
2022/03/31 09:54:06;;;;;;;4.37;3.10;;;8.90;99.90;;;;;;4975362;28;20885;-52
2022/03/31 09:56:35;;;;;;;7.40;2.90;;;8.00;99.90;;;;;;4971435;28;20564;-52
2022/03/31 09:59:04;;;;;;;3.27;2.97;;;7.90;99.90;;;;;;4973842;28;20473;-53
2022/03/31 10:01:31;;;;;;;15.53;3.07;;;7.90;99.90;;;;;;4974495;28;21020;-53
2022/03/31 10:03:58;;;;;;;10.93;2.83;;;8.40;99.90;;;;;;4970459;28;20452;-52
2022/03/31 10:06:25;;;;;;;10.23;2.47;;;9.00;99.90;;;;;;4969094;28;20872;-54
2022/03/31 10:08:52;;;;;;;3.10;2.73;;;9.40;99.90;;;;;;4958382;28;20529;-52
2022/03/31 10:11:20;;;;;;;8.30;2.70;;;8.60;99.90;;;;;;4964724;28;20501;-52
2022/03/31 10:13:54;;;;;;;3.13;2.80;;;8.30;99.90;;;;;;4959098;28;20839;-53
2022/03/31 10:16:32;;;;;;;2.80;2.60;;;7.70;99.90;;;;;;4966983;28;21529;-53
2022/03/31 10:18:58;;;;;;;2.97;2.80;;;7.60;99.90;;;;;;4969806;28;20540;-52
2022/03/31 10:21:30;;;;;;;3.27;2.97;;;7.80;99.90;;;;;;4964765;28;21063;-53
2022/03/31 10:26:41;;;;;;;5.10;2.63;;;7.90;99.90;;;;;;4973088;28;20969;-53
2022/03/31 10:29:12;;;;;;;3.13;2.93;;;8.20;99.90;;;;;;4974475;28;20457;-53
2022/03/31 10:31:41;;;;;;;3.00;2.80;;;8.30;99.90;;;;;;4973508;28;20492;-53
2022/03/31 10:34:09;;;;;;;2.90;2.70;;;8.10;99.90;;;;;;4971996;28;20537;-53
2022/03/31 10:36:38;;;;;;;2.53;2.33;;;8.00;99.90;;;;;;4974454;28;20488;-53
2022/03/31 10:39:15;;;;;;;3.77;3.43;;;8.00;99.90;;;;;;4968232;28;20954;-55
2022/03/31 10:41:42;;;;;;;2.50;2.30;;;8.50;99.90;;;;;;4955369;29;20529;-53
2022/03/31 10:44:19;;;;;;;5.60;2.60;;;8.50;99.90;;;;;;4969446;28;20572;-54
2022/03/31 10:47:00;;;;;;;3.00;2.80;;;8.90;99.90;;;;;;4974689;28;20525;-53
2022/03/31 10:49:27;;;;;;;5.30;2.60;;;8.60;99.90;;;;;;4974257;28;20532;-52
2022/03/31 10:51:53;;;;;;;6.00;2.60;;;8.90;99.90;;;;;;4972754;28;20469;-53
2022/03/31 10:54:28;;;;;;;5.33;3.10;;;8.70;99.90;;;;;;4965429;28;20496;-53
2022/03/31 10:57:06;;;;;;;3.00;2.80;;;9.00;99.90;;;;;;4955106;28;20568;-53
2022/03/31 10:59:34;;;;;;;2.83;2.63;;;8.90;99.90;;;;;;4970093;28;20504;-53
2022/03/31 11:02:09;;;;;;;3.30;2.97;;;8.40;99.90;;;;;;4959057;28;20478;-53
2022/03/31 11:04:46;;;;;;;2.77;2.50;;;8.40;99.90;;;;;;4964347;28;21027;-53
2022/03/31 11:07:18;;;;;;;10.10;2.47;;;8.90;99.90;;;;;;4955792;28;20562;-53
2022/03/31 11:09:45;;;;;;;5.20;3.23;;;9.80;99.90;;;;;;4964246;28;20447;-53
2022/03/31 11:12:23;;;;;;;8.57;2.90;;;10.00;99.90;;;;;;4958025;28;20481;-52
2022/03/31 11:14:54;;;;;;;3.03;2.83;;;9.80;99.90;;;;;;4972188;28;20471;-53
2022/03/31 11:17:23;;;;;;;3.77;2.73;;;9.80;99.90;;;;;;4963817;28;20569;-53
2022/03/31 11:19:50;;;;;;;5.63;2.50;;;9.60;99.90;;;;;;4962946;28;20449;-53
2022/03/31 11:22:19;;;;;;;3.93;3.03;;;9.20;99.90;;;;;;4970148;28;20542;-53
2022/03/31 11:24:46;;;;;;;4.70;2.67;;;9.00;99.90;;;;;;4959637;28;20451;-53
2022/03/31 11:27:12;;;;;;;3.03;2.10;;;9.20;99.90;;;;;;4954700;28;20492;-54
2022/03/31 11:29:39;;;;;;;2.83;2.63;;;9.30;99.90;;;;;;4958159;28;20489;-53
2022/03/31 11:32:06;;;;;;;3.13;2.43;;;9.40;99.90;;;;;;4961258;28;20827;-53
2022/03/31 11:34:35;;;;;;;2.50;2.30;;;9.90;99.90;;;;;;4967053;28;20544;-53
2022/03/31 11:37:02;;;;;;;10.93;3.17;;;10.00;99.90;;;;;;4967120;28;20516;-53
2022/03/31 11:39:30;;;;;;;5.50;2.57;;;10.20;99.90;;;;;;4960220;28;20573;-53
2022/03/31 11:41:57;;;;;;;9.00;2.80;;;9.40;99.90;;;;;;4969423;28;20490;-53
2022/03/31 11:44:26;;;;;;;4.27;3.87;;;9.40;99.90;;;;;;4968472;28;20536;-54
2022/03/31 11:46:53;;;;;;;7.70;3.13;;;9.50;99.90;;;;;;4973407;28;20462;-53
2022/03/31 11:49:22;;;;;;;4.67;3.10;;;9.70;99.90;;;;;;4973112;28;20537;-52
2022/03/31 11:51:51;;;;;;;8.23;3.60;;;9.50;99.90;;;;;;4969292;28;20529;-53
2022/03/31 11:54:18;;;;;;;4.60;3.60;;;9.10;99.90;;;;;;4965918;28;21019;-53
2022/03/31 11:56:45;;;;;;;9.03;3.40;;;9.20;99.90;;;;;;4971722;28;20458;-52
2022/03/31 11:59:12;;;;;;;3.77;2.60;;;9.20;99.90;;;;;;4971494;28;20833;-53
2022/03/31 12:01:43;;;;;;;4.17;3.10;;;9.40;99.90;;;;;;4968282;28;20469;-53
2022/03/31 12:04:17;;;;;;;10.63;3.87;;;9.60;99.90;;;;;;4971091;28;20958;-54
2022/03/31 12:06:44;;;;;;;3.63;3.00;;;9.00;99.90;;;;;;4957568;28;20544;-53
2022/03/31 12:09:12;;;;;;;3.50;3.20;;;9.60;99.90;;;;;;4965034;28;20484;-53
2022/03/31 12:11:39;;;;;;;4.10;2.73;;;9.00;99.90;;;;;;4968919;28;20560;-53
2022/03/31 12:14:09;;;;;;;2.40;2.20;;;9.00;99.90;;;;;;4960617;28;20853;-52
2022/03/31 12:16:43;;;;;;;5.07;3.53;;;8.90;99.90;;;;;;4969829;28;20513;-53
2022/03/31 12:19:09;;;;;;;5.17;3.20;;;8.50;99.90;;;;;;4969154;28;20509;-52
2022/03/31 12:21:45;;;;;;;10.00;2.83;;;8.90;99.90;;;;;;4972843;28;20508;-52
2022/03/31 12:24:14;;;;;;;5.93;2.90;;;8.70;99.90;;;;;;4972770;28;20449;-53
2022/03/31 12:26:52;;;;;;;14.70;3.27;;;8.90;99.90;;;;;;4968426;28;20482;-52
2022/03/31 12:29:19;;;;;;;3.60;3.20;;;9.10;99.90;;;;;;4972670;28;20450;-52
2022/03/31 12:31:46;;;;;;;7.07;3.00;;;9.80;99.90;;;;;;4971842;28;20481;-53
2022/03/31 12:34:13;;;;;;;2.90;2.70;;;10.00;99.90;;;;;;4956583;28;20560;-54
2022/03/31 12:36:41;;;;;;;2.70;2.50;;;10.20;99.90;;;;;;4970577;28;20540;-52
2022/03/31 12:39:08;;;;;;;11.67;2.90;;;10.10;99.90;;;;;;4962566;28;21083;-52
2022/03/31 12:41:39;;;;;;;4.90;3.00;;;10.10;99.90;;;;;;4966816;28;20560;-53
2022/03/31 12:44:08;;;;;;;4.53;3.07;;;9.70;99.90;;;;;;4969906;28;20509;-54
2022/03/31 12:46:37;;;;;;;3.17;2.90;;;9.80;99.90;;;;;;4966747;28;20517;-53
2022/03/31 12:49:07;;;;;;;3.10;2.80;;;9.90;99.90;;;;;;4971892;28;20527;-53
2022/03/31 12:51:46;;;;;;;9.90;3.63;;;9.90;99.90;;;;;;4961060;28;20479;-53
2022/03/31 12:54:23;;;;;;;6.63;3.17;;;10.00;99.90;;;;;;4955082;28;20538;-53
2022/03/31 12:56:54;;;;;;;4.57;2.60;;;9.60;99.90;;;;;;4966177;28;20465;-53
2022/03/31 12:59:24;;;;;;;4.27;2.67;;;9.90;99.90;;;;;;4965431;28;20485;-53
2022/03/31 13:01:58;;;;;;;4.73;2.67;;;9.60;99.90;;;;;;4966795;28;20849;-53
2022/03/31 13:04:25;;;;;;;6.47;3.00;;;10.20;99.90;;;;;;4967051;28;20465;-52